Time;durP1;ratioP1;P1;durP2;ratioP2;P2;SDS_P1;SDS_P2;PMS_P1;PMS_P2;Temp;Humidity;BMP_temperature;BMP_pressure;BME280_temperature;BME280_humidity;BME280_pressure;Samples;Min_cycle;Max_cycle;Signal;HPM_P1;HPM_P2
2023/06/29 00:02:25;;;;;;;1.03;1.00;;;;;15.90;96176.00;;;;5056608;28;20188;-56
2023/06/29 00:04:54;;;;;;;1.10;1.10;;;;;16.00;96180.00;;;;5057152;28;20273;-56
2023/06/29 00:07:25;;;;;;;0.70;0.70;;;;;16.10;96173.00;;;;5056497;28;20219;-56
2023/06/29 00:09:53;;;;;;;1.90;1.70;;;;;16.10;96173.00;;;;5056650;28;20180;-56
2023/06/29 00:12:20;;;;;;;1.07;1.07;;;;;16.10;96166.00;;;;5056756;28;20192;-56
2023/06/29 00:14:48;;;;;;;2.50;1.53;;;;;16.10;96167.00;;;;5056597;28;20216;-56
2023/06/29 00:17:16;;;;;;;0.93;0.93;;;;;16.10;96168.00;;;;5056399;28;20192;-56
2023/06/29 00:19:47;;;;;;;1.00;1.00;;;;;16.10;96160.00;;;;5055047;28;20599;-56
2023/06/29 00:22:16;;;;;;;1.37;1.37;;;;;15.70;96164.00;;;;5056327;28;20191;-56
2023/06/29 00:24:44;;;;;;;1.43;1.20;;;;;15.70;96163.00;;;;5056394;28;20211;-56
2023/06/29 00:27:13;;;;;;;0.80;0.80;;;;;15.70;96165.00;;;;5056592;28;20219;-56
2023/06/29 00:29:43;;;;;;;0.80;0.80;;;;;15.60;96159.00;;;;5056203;28;20196;-56
2023/06/29 00:32:10;;;;;;;1.00;1.00;;;;;15.60;96153.00;;;;5056137;28;20195;-56
2023/06/29 00:34:38;;;;;;;1.00;1.00;;;;;15.40;96145.00;;;;5055983;28;20223;-56
2023/06/29 00:37:06;;;;;;;0.87;0.87;;;;;15.50;96150.00;;;;5056230;28;20188;-56
2023/06/29 00:39:35;;;;;;;0.70;0.70;;;;;15.40;96153.00;;;;5056248;28;20196;-56
2023/06/29 00:42:03;;;;;;;1.00;1.00;;;;;15.50;96148.00;;;;5055917;28;20204;-56
2023/06/29 00:44:31;;;;;;;0.80;0.80;;;;;15.30;96141.00;;;;5055810;28;20212;-58
2023/06/29 00:46:59;;;;;;;0.90;0.90;;;;;15.40;96149.00;;;;5055771;28;20254;-56
2023/06/29 00:49:27;;;;;;;3.10;1.17;;;;;15.40;96146.00;;;;5055775;28;20265;-56
2023/06/29 00:51:55;;;;;;;1.00;1.00;;;;;15.50;96136.00;;;;5055680;28;20192;-56
2023/06/29 00:54:23;;;;;;;0.93;0.93;;;;;15.40;96136.00;;;;5055596;28;20223;-56
2023/06/29 00:56:53;;;;;;;1.37;1.33;;;;;15.40;96130.00;;;;5055635;28;20184;-55
2023/06/29 00:59:21;;;;;;;1.50;1.40;;;;;15.30;96128.00;;;;5054200;28;20298;-58
2023/06/29 01:01:48;;;;;;;2.10;1.70;;;;;15.30;96134.00;;;;5055573;28;20185;-57
2023/06/29 01:04:17;;;;;;;0.73;0.73;;;;;15.30;96129.00;;;;5054159;28;20742;-57
2023/06/29 01:06:51;;;;;;;1.10;1.10;;;;;15.20;96129.00;;;;5055341;28;20780;-56
2023/06/29 01:09:19;;;;;;;1.13;1.13;;;;;15.20;96128.00;;;;5055431;28;20602;-56
2023/06/29 01:11:48;;;;;;;0.67;0.67;;;;;15.20;96132.00;;;;5054049;28;20199;-57
2023/06/29 01:14:18;;;;;;;0.90;0.90;;;;;15.00;96126.00;;;;5055201;28;20212;-56
2023/06/29 01:16:46;;;;;;;0.70;0.70;;;;;15.10;96129.00;;;;5055567;28;20263;-56
2023/06/29 01:19:22;;;;;;;1.30;1.27;;;;;15.10;96122.00;;;;5055459;28;20199;-56
2023/06/29 01:21:58;;;;;;;1.27;1.27;;;;;15.10;96129.00;;;;5055737;28;20176;-56
2023/06/29 01:24:27;;;;;;;0.60;0.60;;;;;15.00;96116.00;;;;5055215;28;20241;-56
2023/06/29 01:26:56;;;;;;;0.80;0.80;;;;;15.00;96112.00;;;;5055004;28;20212;-56
2023/06/29 01:29:24;;;;;;;1.70;1.60;;;;;14.90;96108.00;;;;5055037;28;20531;-56
2023/06/29 01:32:00;;;;;;;0.90;0.90;;;;;14.90;96110.00;;;;5055014;28;20196;-56
2023/06/29 01:34:29;;;;;;;0.97;0.97;;;;;14.80;96108.00;;;;5055460;28;20219;-56
2023/06/29 01:37:01;;;;;;;0.97;0.97;;;;;14.70;96112.00;;;;5054916;28;20192;-56
2023/06/29 01:39:35;;;;;;;0.87;0.87;;;;;14.80;96104.00;;;;5054899;28;20696;-56
2023/06/29 01:42:05;;;;;;;1.23;1.23;;;;;14.80;96105.00;;;;5054875;28;20195;-57
2023/06/29 01:44:33;;;;;;;1.00;1.00;;;;;14.90;96103.00;;;;5054810;28;20212;-57
2023/06/29 01:47:01;;;;;;;0.80;0.80;;;;;14.90;96093.00;;;;5055469;28;20223;-57
2023/06/29 01:49:29;;;;;;;1.00;1.00;;;;;14.90;96088.00;;;;5054903;28;20655;-56
2023/06/29 01:51:56;;;;;;;0.70;0.70;;;;;14.90;96090.00;;;;5053373;28;20200;-55
2023/06/29 01:54:24;;;;;;;1.20;1.20;;;;;14.80;96083.00;;;;5053523;28;20239;-57
2023/06/29 01:56:51;;;;;;;0.97;0.97;;;;;14.70;96085.00;;;;5055185;28;20772;-55
2023/06/29 01:59:20;;;;;;;0.70;0.70;;;;;14.60;96082.00;;;;5053152;28;20541;-55
2023/06/29 02:01:47;;;;;;;1.00;1.00;;;;;14.30;96083.00;;;;5054714;28;20263;-57
2023/06/29 02:04:15;;;;;;;1.07;1.07;;;;;14.30;96084.00;;;;5054400;28;20266;-56
2023/06/29 02:06:42;;;;;;;0.87;0.87;;;;;14.40;96086.00;;;;5054202;28;20349;-56
2023/06/29 02:09:09;;;;;;;1.00;1.00;;;;;14.40;96086.00;;;;5054474;28;20192;-56
2023/06/29 02:11:37;;;;;;;0.87;0.87;;;;;14.40;96094.00;;;;5054458;28;20262;-56
2023/06/29 02:14:05;;;;;;;0.70;0.70;;;;;14.40;96090.00;;;;5054061;28;20710;-56
2023/06/29 02:16:33;;;;;;;0.90;0.90;;;;;14.20;96085.00;;;;5054104;28;20192;-56
2023/06/29 02:19:01;;;;;;;0.57;0.57;;;;;14.20;96079.00;;;;5054070;28;20596;-56
2023/06/29 02:21:28;;;;;;;1.10;1.10;;;;;14.20;96070.00;;;;5054125;28;20196;-56
2023/06/29 02:23:56;;;;;;;1.47;1.40;;;;;14.30;96080.00;;;;5053938;28;20258;-57
2023/06/29 02:26:26;;;;;;;1.10;1.10;;;;;14.30;96081.00;;;;5054333;28;20220;-56
2023/06/29 02:28:53;;;;;;;0.70;0.70;;;;;14.30;96081.00;;;;5054204;28;20531;-56
2023/06/29 02:31:21;;;;;;;1.07;1.07;;;;;14.30;96079.00;;;;5053887;28;20196;-57
2023/06/29 02:33:50;;;;;;;1.00;1.00;;;;;14.30;96078.00;;;;5053768;28;20261;-56
2023/06/29 02:36:20;;;;;;;1.00;1.00;;;;;14.30;96068.00;;;;5053963;28;20195;-56
2023/06/29 02:38:48;;;;;;;0.87;0.87;;;;;14.30;96069.00;;;;5053974;28;20187;-56
2023/06/29 02:41:15;;;;;;;0.70;0.70;;;;;14.30;96070.00;;;;5052363;28;20207;-56
2023/06/29 02:43:43;;;;;;;0.90;0.90;;;;;14.00;96071.00;;;;5053690;28;20220;-56
2023/06/29 02:46:10;;;;;;;0.70;0.70;;;;;14.00;96069.00;;;;5053652;28;20200;-56
2023/06/29 02:48:37;;;;;;;0.67;0.67;;;;;14.10;96070.00;;;;5052140;28;20216;-56
2023/06/29 02:51:06;;;;;;;0.90;0.90;;;;;14.00;96077.00;;;;5053546;28;20192;-56
2023/06/29 02:53:33;;;;;;;2.20;1.17;;;;;13.90;96073.00;;;;5051971;28;20223;-56
2023/06/29 02:56:01;;;;;;;0.80;0.80;;;;;14.20;96077.00;;;;5053697;28;20527;-56
2023/06/29 02:58:28;;;;;;;0.73;0.73;;;;;14.10;96070.00;;;;5053596;28;20184;-57
2023/06/29 03:00:55;;;;;;;0.90;0.90;;;;;14.00;96068.00;;;;5053306;28;20199;-56
2023/06/29 03:03:23;;;;;;;0.87;0.87;;;;;14.00;96067.00;;;;5053215;28;20215;-56
2023/06/29 03:05:50;;;;;;;0.90;0.90;;;;;14.00;96068.00;;;;5053251;28;20196;-56
2023/06/29 03:08:19;;;;;;;1.23;1.23;;;;;13.90;96071.00;;;;5053158;28;20228;-56
2023/06/29 03:10:46;;;;;;;1.50;1.37;;;;;13.90;96065.00;;;;5053150;28;20192;-56
2023/06/29 03:13:14;;;;;;;1.33;0.97;;;;;13.80;96073.00;;;;5053316;28;20572;-56
2023/06/29 03:15:41;;;;;;;1.27;1.17;;;;;13.80;96068.00;;;;5053307;28;20208;-56
2023/06/29 03:18:08;;;;;;;1.97;1.80;;;;;13.60;96071.00;;;;5053070;28;20192;-56
2023/06/29 03:20:36;;;;;;;0.97;0.97;;;;;13.70;96055.00;;;;5051534;28;20195;-56
2023/06/29 03:23:03;;;;;;;0.70;0.70;;;;;13.80;96055.00;;;;5052358;28;20659;-56
2023/06/29 03:25:32;;;;;;;0.80;0.80;;;;;13.80;96062.00;;;;5052953;28;20188;-56
2023/06/29 03:27:59;;;;;;;2.67;1.17;;;;;13.60;96058.00;;;;5052897;28;20211;-56
2023/06/29 03:30:27;;;;;;;1.00;1.00;;;;;13.70;96064.00;;;;5052917;28;20202;-56
2023/06/29 03:32:56;;;;;;;0.80;0.80;;;;;13.70;96062.00;;;;5052839;28;20196;-56
2023/06/29 03:35:23;;;;;;;1.50;1.40;;;;;13.70;96064.00;;;;5053136;28;20199;-56
2023/06/29 03:37:51;;;;;;;4.20;1.73;;;;;13.80;96059.00;;;;5052855;28;20195;-55
2023/06/29 03:40:18;;;;;;;0.97;0.90;;;;;13.80;96049.00;;;;5052891;28;20195;-56
2023/06/29 03:42:47;;;;;;;1.03;1.00;;;;;13.70;96056.00;;;;5052935;28;20196;-56
2023/06/29 03:45:15;;;;;;;1.80;1.70;;;;;13.80;96054.00;;;;5053048;28;20582;-56
2023/06/29 03:47:42;;;;;;;0.70;0.70;;;;;13.90;96048.00;;;;5052731;28;20694;-56
2023/06/29 03:50:10;;;;;;;1.00;1.00;;;;;13.90;96049.00;;;;5052763;28;20196;-56
2023/06/29 03:52:38;;;;;;;1.00;1.00;;;;;14.00;96045.00;;;;5052960;28;20585;-57
2023/06/29 03:55:06;;;;;;;1.13;1.13;;;;;13.90;96044.00;;;;5052490;28;20625;-56
2023/06/29 03:57:33;;;;;;;1.63;1.53;;;;;13.80;96033.00;;;;5052603;28;20192;-56
2023/06/29 04:00:03;;;;;;;0.70;0.70;;;;;13.50;96041.00;;;;5051402;28;20200;-56
2023/06/29 04:02:30;;;;;;;1.77;1.67;;;;;13.60;96037.00;;;;5052624;28;20254;-57
2023/06/29 04:04:58;;;;;;;0.90;0.90;;;;;13.60;96033.00;;;;5052527;28;20212;-56
2023/06/29 04:07:25;;;;;;;1.00;1.00;;;;;13.80;96033.00;;;;5052568;28;20274;-56
2023/06/29 04:09:52;;;;;;;1.50;1.43;;;;;13.70;96044.00;;;;5052789;28;20528;-57
2023/06/29 04:12:20;;;;;;;0.93;0.93;;;;;13.70;96043.00;;;;5052383;28;20196;-56
2023/06/29 04:14:47;;;;;;;1.17;1.17;;;;;13.90;96041.00;;;;5052666;28;20597;-56
2023/06/29 04:17:16;;;;;;;1.40;1.30;;;;;14.20;96039.00;;;;5051098;28;20655;-56
2023/06/29 04:19:43;;;;;;;1.30;1.30;;;;;14.50;96042.00;;;;5052423;28;20350;-60
2023/06/29 04:22:10;;;;;;;2.17;1.97;;;;;14.50;96036.00;;;;5052454;28;20708;-56
2023/06/29 04:24:38;;;;;;;1.20;1.10;;;;;14.50;96035.00;;;;5052224;28;20223;-57
2023/06/29 04:27:06;;;;;;;1.00;1.00;;;;;14.40;96027.00;;;;5052261;28;20200;-56
2023/06/29 04:29:33;;;;;;;0.87;0.87;;;;;14.40;96033.00;;;;5052380;28;20200;-56
2023/06/29 04:32:01;;;;;;;0.67;0.67;;;;;14.50;96031.00;;;;5052302;28;20720;-56
2023/06/29 04:34:30;;;;;;;1.67;1.57;;;;;14.60;96020.00;;;;5055635;28;20223;-57
2023/06/29 04:37:01;;;;;;;0.83;0.83;;;;;14.70;96024.00;;;;5056043;28;20188;-57
2023/06/29 04:39:29;;;;;;;1.03;1.03;;;;;14.80;96030.00;;;;5056231;28;20677;-57
2023/06/29 04:42:01;;;;;;;1.23;1.23;;;;;14.70;96022.00;;;;5055815;28;20606;-57
2023/06/29 04:44:32;;;;;;;0.90;0.90;;;;;14.60;96027.00;;;;5056150;28;20216;-59
2023/06/29 04:47:01;;;;;;;0.70;0.70;;;;;13.80;96026.00;;;;5055899;28;20188;-56
2023/06/29 04:49:31;;;;;;;1.20;1.10;;;;;14.00;96025.00;;;;5055977;28;20269;-58
2023/06/29 04:52:00;;;;;;;1.43;1.33;;;;;14.20;96026.00;;;;5055941;28;20187;-57
2023/06/29 04:54:27;;;;;;;0.97;0.97;;;;;14.30;96032.00;;;;5055686;28;20277;-58
2023/06/29 04:56:56;;;;;;;1.27;1.27;;;;;14.60;96019.00;;;;5055662;28;20196;-56
2023/06/29 04:59:25;;;;;;;1.70;1.60;;;;;14.80;96024.00;;;;5055059;28;20204;-56
2023/06/29 05:01:52;;;;;;;1.13;1.13;;;;;15.00;96020.00;;;;5055545;28;20192;-56
2023/06/29 05:04:19;;;;;;;0.80;0.80;;;;;15.10;96021.00;;;;5056210;28;20204;-56
2023/06/29 05:06:48;;;;;;;1.10;1.10;;;;;15.10;96021.00;;;;5055908;28;20196;-57
2023/06/29 05:09:16;;;;;;;0.77;0.77;;;;;15.10;96018.00;;;;5055234;28;20216;-57
2023/06/29 05:11:44;;;;;;;2.40;2.20;;;;;15.20;96027.00;;;;5055238;28;20734;-57
2023/06/29 05:14:11;;;;;;;1.97;1.87;;;;;15.20;96025.00;;;;5055229;28;20218;-58
2023/06/29 05:16:39;;;;;;;1.23;1.23;;;;;15.30;96028.00;;;;5055244;28;20192;-57
2023/06/29 05:19:06;;;;;;;0.90;0.90;;;;;15.40;96022.00;;;;5055235;28;20722;-57
2023/06/29 05:21:33;;;;;;;1.27;1.17;;;;;15.50;96020.00;;;;5055410;28;20563;-57
2023/06/29 05:24:02;;;;;;;0.70;0.70;;;;;15.50;96027.00;;;;5055085;28;20211;-57
2023/06/29 05:26:29;;;;;;;1.03;1.03;;;;;15.60;96024.00;;;;5055221;28;20686;-57
2023/06/29 05:29:01;;;;;;;0.93;0.93;;;;;15.60;96022.00;;;;5054920;28;20687;-56
2023/06/29 05:31:28;;;;;;;1.97;1.67;;;;;15.70;96015.00;;;;5055033;28;20188;-57
2023/06/29 05:33:55;;;;;;;1.00;1.00;;;;;15.80;96012.00;;;;5053644;28;20251;-56
2023/06/29 05:36:23;;;;;;;1.07;1.07;;;;;15.90;96014.00;;;;5055021;28;20192;-56
2023/06/29 05:38:50;;;;;;;1.30;1.30;;;;;16.00;96008.00;;;;5055038;28;20192;-57
2023/06/29 05:41:19;;;;;;;0.80;0.80;;;;;16.10;96008.00;;;;5055081;28;20200;-56
2023/06/29 05:43:46;;;;;;;0.80;0.80;;;;;16.30;96005.00;;;;5054394;28;20212;-57
2023/06/29 05:46:14;;;;;;;1.07;0.97;;;;;16.30;96006.00;;;;5054355;28;20575;-56
2023/06/29 05:48:41;;;;;;;0.90;0.90;;;;;16.30;96002.00;;;;5054547;28;20547;-57
2023/06/29 05:51:08;;;;;;;0.90;0.90;;;;;16.60;96003.00;;;;5053173;28;20200;-57
2023/06/29 05:53:36;;;;;;;1.17;1.17;;;;;16.50;95995.00;;;;5054236;28;20223;-57
2023/06/29 05:56:03;;;;;;;1.10;1.10;;;;;16.60;96002.00;;;;5054470;28;20184;-57
2023/06/29 05:58:32;;;;;;;1.13;1.13;;;;;16.80;95999.00;;;;5054410;28;20184;-57
2023/06/29 06:01:00;;;;;;;1.00;1.00;;;;;16.90;95999.00;;;;5054589;28;20188;-57
2023/06/29 06:03:29;;;;;;;0.97;0.97;;;;;17.10;95998.00;;;;5054226;28;20294;-57
2023/06/29 06:05:56;;;;;;;1.10;1.10;;;;;17.30;95992.00;;;;5054839;28;20245;-57
2023/06/29 06:08:23;;;;;;;1.13;1.13;;;;;17.60;95990.00;;;;5052862;28;20226;-57
2023/06/29 06:10:51;;;;;;;1.03;1.03;;;;;17.60;96000.00;;;;5054185;28;20196;-58
2023/06/29 06:13:19;;;;;;;1.07;1.07;;;;;17.70;95999.00;;;;5053959;28;20757;-57
2023/06/29 06:15:49;;;;;;;0.80;0.80;;;;;17.80;95996.00;;;;5052820;28;20202;-57
2023/06/29 06:18:16;;;;;;;2.63;1.90;;;;;17.80;95997.00;;;;5054057;28;20655;-57
2023/06/29 06:20:44;;;;;;;0.70;0.70;;;;;17.90;95994.00;;;;5054171;28;20200;-57
2023/06/29 06:23:11;;;;;;;0.80;0.80;;;;;17.90;95991.00;;;;5053872;28;20212;-58
2023/06/29 06:25:39;;;;;;;1.10;1.10;;;;;18.30;96000.00;;;;5054015;28;20196;-57
2023/06/29 06:28:06;;;;;;;1.30;1.30;;;;;18.40;95994.00;;;;5054080;28;20224;-57
2023/06/29 06:30:33;;;;;;;0.90;0.90;;;;;18.50;95997.00;;;;5053843;28;20200;-56
2023/06/29 06:33:02;;;;;;;5.77;1.43;;;;;18.60;95992.00;;;;5054229;28;20192;-57
2023/06/29 06:35:29;;;;;;;0.80;0.80;;;;;18.80;95996.00;;;;5053711;28;20227;-56
2023/06/29 06:37:57;;;;;;;1.17;1.17;;;;;18.90;95989.00;;;;5053860;28;20192;-56
2023/06/29 06:40:24;;;;;;;1.20;1.20;;;;;19.10;95987.00;;;;5054152;28;20206;-57
2023/06/29 06:42:52;;;;;;;1.37;1.00;;;;;19.20;95982.00;;;;5053523;28;20215;-56
2023/06/29 06:45:19;;;;;;;1.20;1.20;;;;;19.30;95982.00;;;;5053800;28;20200;-56
2023/06/29 06:47:47;;;;;;;1.63;1.53;;;;;19.50;95983.00;;;;5050128;28;20663;-57
2023/06/29 06:50:16;;;;;;;0.93;0.93;;;;;19.80;95984.00;;;;5048006;28;20208;-55
2023/06/29 06:52:43;;;;;;;0.70;0.70;;;;;20.00;95986.00;;;;5052054;28;20288;-56
2023/06/29 06:55:11;;;;;;;1.00;1.00;;;;;19.90;95979.00;;;;5051180;28;20232;-54
2023/06/29 06:57:39;;;;;;;0.93;0.93;;;;;20.10;95978.00;;;;5051338;28;20196;-55
2023/06/29 07:00:12;;;;;;;2.10;2.00;;;;;20.30;95984.00;;;;5051454;28;20192;-54
2023/06/29 07:02:40;;;;;;;2.50;1.57;;;;;20.50;95977.00;;;;5051175;28;20199;-54
2023/06/29 07:05:08;;;;;;;1.85;1.38;;;;;20.70;95977.00;;;;5051130;28;20211;-55
2023/06/29 07:07:36;;;;;;;0.85;0.85;;;;;21.00;95978.00;;;;5049464;28;20203;-55
2023/06/29 07:10:05;;;;;;;0.73;0.73;;;;;21.10;95978.00;;;;5051116;28;20227;-56
2023/06/29 07:12:32;;;;;;;0.65;0.65;;;;;21.20;95972.00;;;;5051265;28;20290;-56
2023/06/29 07:15:00;;;;;;;8.65;1.38;;;;;21.30;95980.00;;;;5051174;28;20788;-54
2023/06/29 07:17:27;;;;;;;0.75;0.75;;;;;21.30;95974.00;;;;5050579;28;20195;-55
2023/06/29 07:19:55;;;;;;;1.15;1.13;;;;;21.30;95975.00;;;;5051032;28;20200;-54
2023/06/29 07:22:22;;;;;;;1.33;1.33;;;;;21.30;95973.00;;;;5050880;28;20203;-55
2023/06/29 07:24:51;;;;;;;0.68;0.68;;;;;21.40;95966.00;;;;5050188;28;20694;-56
2023/06/29 07:27:19;;;;;;;0.95;0.95;;;;;21.20;95971.00;;;;5051013;28;20271;-55
2023/06/29 07:29:47;;;;;;;0.90;0.90;;;;;21.50;95975.00;;;;5050801;28;20261;-56
2023/06/29 07:32:14;;;;;;;1.38;1.05;;;;;21.50;95975.00;;;;5050832;28;20196;-56
2023/06/29 07:34:42;;;;;;;0.63;0.63;;;;;21.60;95967.00;;;;5050692;28;20222;-56
2023/06/29 07:37:09;;;;;;;0.70;0.70;;;;;21.60;95972.00;;;;5050746;28;20206;-56
2023/06/29 07:39:36;;;;;;;0.75;0.75;;;;;21.60;95964.00;;;;5046765;28;20200;-56
2023/06/29 07:42:06;;;;;;;0.80;0.80;;;;;21.70;95972.00;;;;5050855;28;20207;-55
2023/06/29 07:44:33;;;;;;;0.50;0.50;;;;;21.70;95964.00;;;;5049825;28;20227;-57
2023/06/29 07:47:01;;;;;;;0.65;0.65;;;;;21.90;95964.00;;;;5049899;28;20196;-55
2023/06/29 07:49:28;;;;;;;0.60;0.60;;;;;21.90;95963.00;;;;5049098;28;20224;-56
2023/06/29 07:51:55;;;;;;;0.50;0.50;;;;;21.60;95963.00;;;;5050546;28;20207;-57
2023/06/29 07:54:23;;;;;;;1.17;1.10;;;;;21.60;95957.00;;;;5050794;28;20251;-54
2023/06/29 07:56:50;;;;;;;0.95;0.95;;;;;21.50;95971.00;;;;5050056;28;20207;-54
2023/06/29 07:59:19;;;;;;;0.77;0.77;;;;;21.50;95965.00;;;;5050426;28;20297;-56
2023/06/29 08:01:48;;;;;;;0.88;0.88;;;;;21.50;95962.00;;;;5050496;28;20257;-54
2023/06/29 08:04:16;;;;;;;1.65;1.55;;;;;21.80;95962.00;;;;5050781;28;20254;-56
2023/06/29 08:06:43;;;;;;;0.70;0.70;;;;;21.70;95959.00;;;;5049058;28;21071;-54
2023/06/29 08:09:11;;;;;;;0.70;0.70;;;;;21.90;95964.00;;;;5053634;28;20228;-54
2023/06/29 08:11:39;;;;;;;1.45;1.35;;;;;21.80;95958.00;;;;5054088;28;20282;-54
2023/06/29 08:14:06;;;;;;;0.60;0.60;;;;;21.80;95958.00;;;;5054276;28;20337;-54
2023/06/29 08:16:35;;;;;;;1.13;1.13;;;;;21.90;95966.00;;;;5053444;28;20212;-53
2023/06/29 08:19:02;;;;;;;1.73;1.05;;;;;22.20;95957.00;;;;5053368;28;20211;-54
2023/06/29 08:21:30;;;;;;;0.57;0.57;;;;;22.50;95952.00;;;;5053790;28;20204;-54
2023/06/29 08:23:57;;;;;;;1.17;1.05;;;;;22.80;95949.00;;;;5054480;28;20224;-54
2023/06/29 08:26:25;;;;;;;1.02;1.02;;;;;23.00;95951.00;;;;5054042;28;20233;-54
2023/06/29 08:28:53;;;;;;;0.60;0.60;;;;;23.30;95947.00;;;;5053985;28;20274;-56
2023/06/29 08:31:20;;;;;;;0.70;0.70;;;;;23.30;95953.00;;;;5053860;28;20207;-54
2023/06/29 08:33:49;;;;;;;1.92;0.93;;;;;23.60;95944.00;;;;5054250;28;20220;-54
2023/06/29 08:36:17;;;;;;;0.55;0.55;;;;;23.60;95940.00;;;;5053687;28;20203;-54
2023/06/29 08:38:48;;;;;;;0.60;0.60;;;;;23.60;95943.00;;;;5054501;28;20622;-54
2023/06/29 08:41:16;;;;;;;0.68;0.68;;;;;23.40;95940.00;;;;5052265;28;20282;-54
2023/06/29 08:43:43;;;;;;;1.75;0.98;;;;;23.80;95947.00;;;;5054338;28;20621;-55
2023/06/29 08:46:11;;;;;;;0.68;0.68;;;;;23.90;95934.00;;;;5053439;28;20192;-56
2023/06/29 08:48:46;;;;;;;0.90;0.90;;;;;24.30;95939.00;;;;5053984;28;20314;-57
2023/06/29 08:51:18;;;;;;;0.95;0.95;;;;;23.90;95929.00;;;;5052691;28;20230;-54
2023/06/29 08:53:46;;;;;;;0.60;0.60;;;;;23.60;95930.00;;;;5053889;28;20301;-55
2023/06/29 08:56:14;;;;;;;0.50;0.50;;;;;23.90;95933.00;;;;5051963;28;20196;-54
2023/06/29 08:58:43;;;;;;;0.57;0.57;;;;;24.10;95931.00;;;;5053861;28;20199;-56
2023/06/29 09:01:11;;;;;;;0.70;0.70;;;;;24.30;95942.00;;;;5053138;28;20196;-54
2023/06/29 09:03:39;;;;;;;0.73;0.73;;;;;24.60;95912.00;;;;5053967;28;20222;-60
2023/06/29 09:06:09;;;;;;;0.70;0.70;;;;;24.60;95933.00;;;;5052062;28;20548;-56
2023/06/29 09:08:38;;;;;;;0.57;0.57;;;;;24.70;95928.00;;;;5052350;28;20262;-55
2023/06/29 09:11:06;;;;;;;0.60;0.60;;;;;24.80;95928.00;;;;5053036;28;20204;-55
2023/06/29 09:13:34;;;;;;;16.23;1.67;;;;;25.30;95929.00;;;;5052621;28;20219;-56
2023/06/29 09:16:03;;;;;;;0.80;0.80;;;;;25.10;95935.00;;;;5053338;28;20279;-55
2023/06/29 09:18:32;;;;;;;1.35;1.25;;;;;25.00;95932.00;;;;5053091;28;20227;-55
2023/06/29 09:21:00;;;;;;;0.80;0.80;;;;;24.70;95933.00;;;;5051809;28;20283;-56
2023/06/29 09:23:28;;;;;;;0.85;0.85;;;;;24.70;95927.00;;;;5053414;28;20218;-56
2023/06/29 09:25:58;;;;;;;0.52;0.52;;;;;24.80;95919.00;;;;5052694;28;20200;-56
2023/06/29 09:28:25;;;;;;;1.20;1.05;;;;;25.00;95937.00;;;;5053386;28;20196;-56
2023/06/29 09:30:53;;;;;;;0.47;0.47;;;;;24.40;95929.00;;;;5052914;28;20222;-57
2023/06/29 09:33:21;;;;;;;0.80;0.80;;;;;24.80;95936.00;;;;5053060;28;20620;-55
2023/06/29 09:35:51;;;;;;;1.20;0.80;;;;;24.90;95936.00;;;;5051564;28;20207;-56
2023/06/29 09:38:18;;;;;;;0.95;0.95;;;;;25.10;95928.00;;;;5052788;28;20281;-56
2023/06/29 09:40:51;;;;;;;0.77;0.77;;;;;25.20;95929.00;;;;5052696;28;20196;-55
2023/06/29 09:43:21;;;;;;;0.57;0.57;;;;;25.30;95927.00;;;;5052622;28;20227;-58
2023/06/29 09:45:49;;;;;;;0.90;0.90;;;;;25.30;95931.00;;;;5050765;28;20192;-55
2023/06/29 09:48:16;;;;;;;0.55;0.55;;;;;25.70;95920.00;;;;5052720;28;20279;-55
2023/06/29 09:50:50;;;;;;;1.42;0.88;;;;;25.70;95920.00;;;;5052570;28;20222;-56
2023/06/29 09:53:18;;;;;;;0.65;0.65;;;;;26.10;95918.00;;;;5052312;28;20310;-55
2023/06/29 09:55:49;;;;;;;1.00;0.90;;;;;26.20;95916.00;;;;5052593;28;20223;-56
2023/06/29 09:58:20;;;;;;;0.98;0.98;;;;;26.40;95910.00;;;;5051588;28;20295;-54
2023/06/29 10:00:47;;;;;;;0.80;0.80;;;;;26.10;95913.00;;;;5052666;28;20199;-55
2023/06/29 10:03:15;;;;;;;0.60;0.60;;;;;25.70;95912.00;;;;5052305;28;20769;-55
2023/06/29 10:05:42;;;;;;;0.73;0.73;;;;;25.80;95904.00;;;;5052614;28;20204;-56
2023/06/29 10:08:16;;;;;;;0.95;0.95;;;;;25.70;95910.00;;;;5051882;28;20203;-55
2023/06/29 10:10:45;;;;;;;0.73;0.73;;;;;26.00;95908.00;;;;5051436;28;20236;-55
2023/06/29 10:13:15;;;;;;;1.23;0.95;;;;;26.40;95900.00;;;;5051788;28;20224;-55
2023/06/29 10:15:44;;;;;;;3.63;2.15;;;;;26.50;95905.00;;;;5052415;28;20678;-55
2023/06/29 10:18:17;;;;;;;1.33;1.23;;;;;26.60;95901.00;;;;5051255;28;20203;-54
2023/06/29 10:20:46;;;;;;;1.05;1.05;;;;;26.40;95907.00;;;;5051554;28;20188;-55
2023/06/29 10:23:16;;;;;;;23.25;1.65;;;;;26.00;95901.00;;;;5051465;28;20220;-55
2023/06/29 10:25:48;;;;;;;0.65;0.65;;;;;26.30;95900.00;;;;5052369;28;20203;-55
2023/06/29 10:28:17;;;;;;;1.88;1.00;;;;;25.80;95895.00;;;;5051516;28;20215;-56
2023/06/29 10:30:47;;;;;;;1.20;1.20;;;;;26.30;95882.00;;;;5050702;28;20224;-56
2023/06/29 10:33:21;;;;;;;0.80;0.80;;;;;26.90;95894.00;;;;5051291;28;20216;-56
2023/06/29 10:35:55;;;;;;;0.60;0.60;;;;;26.90;95888.00;;;;5051821;28;20302;-56
2023/06/29 10:38:27;;;;;;;3.85;1.42;;;;;26.80;95891.00;;;;5050538;28;20670;-56
2023/06/29 10:40:55;;;;;;;0.80;0.80;;;;;26.70;95890.00;;;;5051552;28;20558;-56
2023/06/29 10:43:22;;;;;;;1.25;1.23;;;;;26.90;95882.00;;;;5051524;28;20220;-56
2023/06/29 10:45:51;;;;;;;1.00;1.00;;;;;27.10;95874.00;;;;5050269;28;20281;-56
2023/06/29 10:48:19;;;;;;;0.73;0.73;;;;;27.40;95873.00;;;;5051490;28;20208;-56
2023/06/29 10:50:47;;;;;;;0.82;0.82;;;;;27.70;95867.00;;;;5051686;28;20212;-56
2023/06/29 10:53:16;;;;;;;0.68;0.68;;;;;27.80;95878.00;;;;5050978;28;20216;-56
2023/06/29 10:55:50;;;;;;;0.73;0.73;;;;;27.60;95886.00;;;;5050964;28;20223;-56
2023/06/29 10:58:23;;;;;;;0.77;0.77;;;;;27.90;95878.00;;;;5050521;28;20218;-56
2023/06/29 11:00:54;;;;;;;1.08;1.08;;;;;27.70;95875.00;;;;5051043;28;20531;-56
2023/06/29 11:03:22;;;;;;;1.30;1.20;;;;;27.10;95875.00;;;;5050126;28;20270;-56
2023/06/29 11:05:54;;;;;;;1.92;1.42;;;;;27.30;95871.00;;;;5050685;28;20203;-56
2023/06/29 11:08:22;;;;;;;0.93;0.93;;;;;27.40;95871.00;;;;5050384;28;20554;-56
2023/06/29 11:10:50;;;;;;;0.57;0.57;;;;;27.40;95866.00;;;;5050475;28;20235;-56
2023/06/29 11:13:20;;;;;;;1.17;1.17;;;;;27.70;95867.00;;;;5049921;28;20215;-56
2023/06/29 11:15:55;;;;;;;0.93;0.93;;;;;28.30;95871.00;;;;5050743;28;20192;-56
2023/06/29 11:18:23;;;;;;;0.85;0.85;;;;;28.30;95869.00;;;;5049030;28;20679;-56
2023/06/29 11:20:51;;;;;;;1.00;1.00;;;;;28.30;95861.00;;;;5050448;28;20200;-56
2023/06/29 11:23:18;;;;;;;1.13;1.13;;;;;28.80;95861.00;;;;5050021;28;20251;-57
2023/06/29 11:25:46;;;;;;;0.70;0.70;;;;;28.90;95849.00;;;;5050220;28;20191;-56
2023/06/29 11:28:16;;;;;;;1.58;1.48;;;;;29.10;95861.00;;;;5050078;28;20207;-56
2023/06/29 11:30:43;;;;;;;1.08;1.08;;;;;29.00;95858.00;;;;5048958;28;20216;-56
2023/06/29 11:33:13;;;;;;;0.98;0.98;;;;;28.70;95864.00;;;;5048673;28;20246;-56
2023/06/29 11:35:44;;;;;;;0.98;0.98;;;;;28.60;95860.00;;;;5049494;28;20207;-56
2023/06/29 11:38:11;;;;;;;0.50;0.50;;;;;28.50;95866.00;;;;5050043;28;20196;-57
2023/06/29 11:40:38;;;;;;;1.40;1.15;;;;;28.30;95873.00;;;;5049711;28;20196;-56
2023/06/29 11:43:06;;;;;;;0.88;0.88;;;;;28.40;95868.00;;;;5048892;28;20236;-56
2023/06/29 11:45:34;;;;;;;2.40;1.25;;;;;28.70;95870.00;;;;5049795;28;20261;-56
2023/06/29 11:48:02;;;;;;;0.70;0.70;;;;;28.60;95866.00;;;;5049817;28;20192;-56
2023/06/29 11:50:32;;;;;;;3.15;1.77;;;;;28.50;95860.00;;;;5049815;28;20765;-56
2023/06/29 11:55:48;;;;;;;1.00;1.00;;;;;27.70;95856.00;;;;5086785;27;20618;-55
2023/06/29 11:58:15;;;;;;;0.60;0.60;;;;;27.80;95855.00;;;;5088447;28;20195;-55
2023/06/29 12:00:43;;;;;;;1.45;1.45;;;;;27.70;95862.00;;;;5088246;28;20202;-55
2023/06/29 12:03:11;;;;;;;0.52;0.52;;;;;27.50;95870.00;;;;5085081;28;20234;-55
2023/06/29 12:05:42;;;;;;;0.82;0.82;;;;;27.50;95875.00;;;;5067980;28;20203;-55
2023/06/29 12:08:10;;;;;;;4.95;1.20;;;;;26.80;95880.00;;;;5068047;28;20688;-55
2023/06/29 12:10:40;;;;;;;0.88;0.88;;;;;27.00;95874.00;;;;5067096;28;20207;-54
2023/06/29 12:13:10;;;;;;;0.50;0.50;;;;;27.10;95862.00;;;;5067995;28;20206;-54
2023/06/29 12:15:38;;;;;;;0.77;0.77;;;;;27.50;95859.00;;;;5067895;28;20207;-55
2023/06/29 12:18:12;;;;;;;0.90;0.90;;;;;27.30;95872.00;;;;5067854;28;20227;-55
2023/06/29 12:20:41;;;;;;;1.50;1.40;;;;;27.60;95880.00;;;;5066482;28;20195;-56
2023/06/29 12:23:09;;;;;;;0.85;0.85;;;;;27.50;95870.00;;;;5066747;28;20566;-55
2023/06/29 12:25:49;;;;;;;0.80;0.80;;;;;27.40;95873.00;;;;5067651;28;20262;-55
2023/06/29 12:28:17;;;;;;;1.15;1.15;;;;;27.30;95881.00;;;;5067680;28;20196;-55